createdAt,value
2022-08-07T00:01:12.793Z,79.80
2022-08-07T00:06:32.963Z,80.07
2022-08-07T00:11:35.798Z,80.70
2022-08-07T00:16:50.314Z,82.28
2022-08-07T00:21:56.705Z,83.53
2022-08-07T00:27:07.144Z,83.97
2022-08-07T00:32:09.844Z,83.49
2022-08-07T00:37:18.371Z,84.07
2022-08-07T00:42:28.951Z,84.95
2022-08-07T00:48:08.278Z,85.61
2022-08-07T00:52:53.156Z,86.13
2022-08-07T00:57:55.638Z,86.57
2022-08-07T01:02:58.068Z,86.38
2022-08-07T01:07:59.798Z,86.45
2022-08-07T01:13:01.534Z,86.70
2022-08-07T01:18:05.066Z,87.44
2022-08-07T01:23:12.959Z,87.81
2022-08-07T01:28:15.263Z,87.87
2022-08-07T01:33:17.740Z,88.03
2022-08-07T01:38:25.214Z,86.85
2022-08-07T01:43:34.428Z,86.83
2022-08-07T01:48:40.995Z,87.45
2022-08-07T01:54:00.789Z,87.48
2022-08-07T01:59:16.016Z,87.87
2022-08-07T02:04:27.542Z,88.45
2022-08-07T02:09:52.996Z,88.99
2022-08-07T02:14:56.835Z,88.84
2022-08-07T02:20:17.253Z,89.01
2022-08-07T02:25:21.646Z,88.82
2022-08-07T02:30:44.843Z,88.70
2022-08-07T02:36:27.061Z,89.44
2022-08-07T02:41:13.937Z,90.30
2022-08-07T02:46:25.757Z,90.38
2022-08-07T02:51:49.747Z,90.24
2022-08-07T02:56:50.989Z,90.00
2022-08-07T03:01:55.248Z,90.11
2022-08-07T03:06:58.574Z,90.25
2022-08-07T03:12:06.678Z,90.05
2022-08-07T03:17:11.861Z,90.83
2022-08-07T03:22:18.715Z,92.20
2022-08-07T03:27:30.620Z,93.29
2022-08-07T03:32:57.006Z,92.91
2022-08-07T03:38:07.189Z,92.08
2022-08-07T03:43:14.530Z,90.77
2022-08-07T03:48:21.144Z,89.98
2022-08-07T03:54:01.665Z,89.25
2022-08-07T03:59:08.457Z,89.35
2022-08-07T04:04:08.737Z,90.32
2022-08-07T04:09:23.280Z,90.44
2022-08-07T04:14:38.884Z,90.32
2022-08-07T04:19:51.886Z,90.81
2022-08-07T04:24:58.106Z,90.72
2022-08-07T04:30:01.954Z,89.83
2022-08-07T04:35:35.400Z,89.96
2022-08-07T04:40:51.330Z,90.13
2022-08-07T04:46:12.324Z,89.93
2022-08-07T04:51:27.694Z,89.43
2022-08-07T04:58:10.347Z,89.77
2022-08-07T05:02:59.231Z,89.18
2022-08-07T05:08:03.440Z,88.32
2022-08-07T05:14:44.551Z,87.82
2022-08-07T05:18:32.656Z,88.00
2022-08-07T05:23:46.008Z,88.49
2022-08-07T05:28:56.347Z,87.84
2022-08-07T05:34:05.692Z,86.46
2022-08-07T05:40:06.919Z,86.13
2022-08-07T05:44:46.509Z,86.01
2022-08-07T05:49:55.913Z,85.04
2022-08-07T05:55:06.750Z,83.96
2022-08-07T06:00:16.545Z,82.66
2022-08-07T06:05:28.749Z,82.24
2022-08-07T06:10:36.569Z,81.20
2022-08-07T06:15:42.767Z,81.47
2022-08-07T06:22:14.715Z,81.83
2022-08-07T06:26:14.264Z,82.18
2022-08-07T06:31:16.788Z,81.50
2022-08-07T06:36:35.258Z,82.06
2022-08-07T06:42:01.116Z,81.79
2022-08-07T06:47:38.792Z,81.49
2022-08-07T06:52:55.769Z,80.38
2022-08-07T06:58:04.594Z,79.47
2022-08-07T07:03:14.391Z,78.75
2022-08-07T07:08:28.209Z,78.31
2022-08-07T07:13:58.714Z,77.65
2022-08-07T07:19:54.826Z,76.55
2022-08-07T07:24:26.659Z,75.04
2022-08-07T07:29:40.434Z,75.44
2022-08-07T07:34:54.116Z,73.62
2022-08-07T07:39:58.036Z,73.04
2022-08-07T07:45:01.901Z,72.13
2022-08-07T07:50:33.338Z,70.95
2022-08-07T07:55:27.281Z,70.81
2022-08-07T08:00:39.927Z,69.19
2022-08-07T08:05:54.933Z,67.68
2022-08-07T08:10:57.292Z,66.44
2022-08-07T08:16:01.756Z,65.27
2022-08-07T08:21:03.666Z,64.61
2022-08-07T08:26:28.336Z,63.02
2022-08-07T08:31:59.328Z,60.53
2022-08-07T08:37:09.959Z,59.98
2022-08-07T08:42:44.896Z,59.13
2022-08-07T08:48:13.813Z,59.09
2022-08-07T08:53:29.503Z,58.56
2022-08-07T08:58:57.141Z,56.80
2022-08-07T09:04:09.127Z,56.82
2022-08-07T09:09:21.036Z,56.37
2022-08-07T09:14:40.590Z,54.71
2022-08-07T09:19:56.495Z,55.17
2022-08-07T09:25:12.085Z,54.44
2022-08-07T09:30:20.686Z,54.14
2022-08-07T09:36:03.370Z,53.72
2022-08-07T09:41:19.458Z,51.79
2022-08-07T09:47:49.374Z,50.87
2022-08-07T09:52:15.997Z,49.28
2022-08-07T09:57:47.930Z,48.63
2022-08-07T10:04:06.534Z,47.82
2022-08-07T10:08:59.047Z,49.89
2022-08-07T10:14:23.088Z,48.02
2022-08-07T10:19:39.067Z,46.65
2022-08-07T10:31:38.619Z,47.90
2022-08-07T10:36:56.287Z,50.82
2022-08-07T10:42:09.919Z,50.07
2022-08-07T10:47:52.968Z,50.91
2022-08-07T10:53:05.275Z,53.50
2022-08-07T10:58:33.176Z,49.19
2022-08-07T11:03:55.212Z,46.11
2022-08-07T11:10:07.425Z,46.24
2022-08-07T11:14:59.822Z,47.51
2022-08-07T11:20:14.528Z,45.20
2022-08-07T11:25:23.195Z,44.75
2022-08-07T11:30:42.055Z,46.74
2022-08-07T11:36:00.428Z,46.42
2022-08-07T11:41:05.912Z,43.88
2022-08-07T11:46:48.670Z,44.02
2022-08-07T11:52:29.091Z,44.06
2022-08-07T11:58:00.093Z,44.53
2022-08-07T12:03:41.471Z,43.62
2022-08-07T12:08:50.643Z,42.16
2022-08-07T12:14:01.183Z,38.43
2022-08-07T12:19:26.276Z,40.32
2022-08-07T12:25:02.545Z,39.41
2022-08-07T12:30:09.578Z,38.33
2022-08-07T12:35:13.698Z,36.02
2022-08-07T12:40:47.941Z,33.28
2022-08-07T12:46:04.011Z,31.74
2022-08-07T12:51:13.160Z,32.97
2022-08-07T12:56:42.125Z,30.73
2022-08-07T13:01:58.729Z,30.73
2022-08-07T13:07:08.298Z,30.40
2022-08-07T13:12:31.802Z,31.83
2022-08-07T13:17:41.098Z,28.98
2022-08-07T13:23:09.861Z,30.68
2022-08-07T13:28:29.277Z,29.15
2022-08-07T13:34:32.622Z,28.32
2022-08-07T13:40:33.764Z,29.57
2022-08-07T13:46:06.943Z,29.36
2022-08-07T13:50:34.238Z,30.64
2022-08-07T13:55:41.421Z,31.13
2022-08-07T14:00:56.215Z,31.04
2022-08-07T14:05:57.974Z,29.48
2022-08-07T14:11:01.837Z,30.83
2022-08-07T14:16:05.445Z,29.82
2022-08-07T14:22:03.277Z,30.69
2022-08-07T14:26:54.939Z,28.71
2022-08-07T14:32:02.380Z,27.03
2022-08-07T14:37:04.475Z,28.33
2022-08-07T14:42:20.330Z,28.11
2022-08-07T14:47:24.325Z,29.57
2022-08-07T14:52:28.979Z,28.81
2022-08-07T14:57:58.070Z,27.99
2022-08-07T15:02:56.930Z,27.27
2022-08-07T15:07:59.399Z,28.71
2022-08-07T15:13:06.099Z,28.86
2022-08-07T15:18:33.536Z,28.47
2022-08-07T15:25:14.889Z,27.67
2022-08-07T15:30:04.796Z,27.43
2022-08-07T15:34:20.892Z,28.52
2022-08-07T15:39:27.990Z,29.04
2022-08-07T15:44:51.889Z,28.64
2022-08-07T15:50:04.119Z,29.80
2022-08-07T15:55:12.115Z,28.81
2022-08-07T16:00:31.002Z,29.45
2022-08-07T16:05:34.215Z,28.54
2022-08-07T16:10:37.969Z,29.27
2022-08-07T16:16:06.866Z,28.55
2022-08-07T16:21:56.951Z,29.69
2022-08-07T16:27:40.607Z,29.26
2022-08-07T16:32:54.386Z,29.46
2022-08-07T16:38:18.488Z,30.07
2022-08-07T16:44:04.148Z,29.46
2022-08-07T16:50:20.584Z,30.89
2022-08-07T16:55:13.172Z,30.52
2022-08-07T17:00:30.096Z,29.60
2022-08-07T17:06:19.035Z,29.82
2022-08-07T17:11:26.945Z,29.58
2022-08-07T17:16:56.899Z,29.64
2022-08-07T17:22:15.372Z,30.41
2022-08-07T17:27:32.829Z,29.83
2022-08-07T17:32:52.998Z,30.18
2022-08-07T17:38:05.959Z,29.67
2022-08-07T17:43:18.622Z,30.04
2022-08-07T17:48:31.024Z,31.11
2022-08-07T17:54:01.700Z,32.15
2022-08-07T17:59:35.425Z,31.49
2022-08-07T18:06:01.378Z,32.24
2022-08-07T18:12:07.518Z,31.72
2022-08-07T18:17:07.263Z,31.31
2022-08-07T18:22:28.949Z,31.85
2022-08-07T18:27:39.056Z,33.70
2022-08-07T18:33:16.304Z,34.23
2022-08-07T18:38:57.225Z,35.10
2022-08-07T18:44:50.753Z,35.46
2022-08-07T18:50:40.893Z,36.60
2022-08-07T18:56:12.796Z,38.49
2022-08-07T19:02:33.927Z,39.11
2022-08-07T19:07:08.229Z,40.04
2022-08-07T19:12:21.666Z,40.11
2022-08-07T19:18:01.393Z,41.74
2022-08-07T19:23:18.950Z,42.18
2022-08-07T19:30:54.256Z,43.32
2022-08-07T19:33:57.907Z,44.79
2022-08-07T19:39:00.556Z,45.08
2022-08-07T19:44:21.161Z,45.92
2022-08-07T19:49:57.600Z,46.68
2022-08-07T19:54:56.176Z,47.35
2022-08-07T20:00:00.851Z,47.88
2022-08-07T20:05:08.259Z,48.15
2022-08-07T20:10:36.866Z,49.12
2022-08-07T20:15:37.300Z,50.34
2022-08-07T20:20:39.166Z,51.58
2022-08-07T20:25:41.182Z,52.22
2022-08-07T20:30:54.895Z,54.50
2022-08-07T20:36:03.535Z,55.27
2022-08-07T20:41:07.979Z,55.20
2022-08-07T20:46:25.922Z,54.94
2022-08-07T20:51:35.874Z,55.04
2022-08-07T20:56:46.208Z,53.86
2022-08-07T21:01:55.358Z,53.93
2022-08-07T21:07:04.004Z,55.11
2022-08-07T21:12:15.784Z,56.56
2022-08-07T21:18:29.570Z,56.49
2022-08-07T21:22:54.885Z,56.56
2022-08-07T21:28:08.524Z,57.49
2022-08-07T21:33:21.571Z,57.64
2022-08-07T21:38:46.995Z,58.21
2022-08-07T21:44:06.131Z,58.91
2022-08-07T21:50:03.567Z,58.79
2022-08-07T21:55:29.783Z,59.11
2022-08-07T22:00:32.552Z,59.02
2022-08-07T22:05:49.927Z,60.07
2022-08-07T22:10:54.644Z,60.11
2022-08-07T22:16:38.946Z,60.54
2022-08-07T22:22:05.321Z,60.51
2022-08-07T22:27:07.001Z,60.59
2022-08-07T22:32:37.097Z,60.98
2022-08-07T22:38:03.177Z,61.11
2022-08-07T22:43:11.048Z,61.18
2022-08-07T22:48:55.956Z,60.92
2022-08-07T22:54:24.401Z,61.49
2022-08-07T22:59:38.494Z,61.71
2022-08-07T23:04:57.721Z,63.27
2022-08-07T23:10:47.980Z,63.76
2022-08-07T23:16:48.566Z,64.04
2022-08-07T23:21:37.024Z,64.55
2022-08-07T23:27:05.802Z,64.95
2022-08-07T23:34:20.181Z,65.28
2022-08-07T23:38:36.856Z,65.33
2022-08-07T23:43:51.328Z,66.09
2022-08-07T23:49:25.604Z,66.60
2022-08-07T23:54:57.993Z,66.99
